Time;durP1;ratioP1;P1;durP2;ratioP2;P2;SDS_P1;SDS_P2;PMS_P1;PMS_P2;Temp;Humidity;BMP_temperature;BMP_pressure;BME280_temperature;BME280_humidity;BME280_pressure;Samples;Min_cycle;Max_cycle;Signal;HPM_P1;HPM_P2
2023/04/27 00:00:48;;;;;;;;;;;;;;;;;;5038975;28;19921;-54
2023/04/27 00:03:15;;;;;;;;;;;;;;;;;;5041045;28;20050;-48
2023/04/27 00:05:42;;;;;;;;;;;;;;;;;;5037190;28;20021;-49
2023/04/27 00:08:16;;;;;;;;;;;;;;;;;;5036855;28;19935;-45
2023/04/27 00:10:43;;;;;;;;;;;;;;;;;;5035775;28;19951;-59
2023/04/27 00:13:17;;;;;;;;;;;;;;;;;;5032656;28;20861;-58
2023/04/27 00:15:51;;;;;;;;;;;;;;;;;;5039286;28;20003;-56
2023/04/27 00:18:18;;;;;;;;;;;;;;;;;;5020937;28;19932;-55
2023/04/27 00:20:52;;;;;;;;;;;;;;;;;;5015242;28;20034;-56
2023/04/27 00:23:19;;;;;;;;;;;;;;;;;;5018187;28;19920;-58
2023/04/27 00:25:46;;;;;;;;;;;;;;;;;;5013667;28;19921;-52
2023/04/27 00:28:20;;;;;;;;;;;;;;;;;;5015697;28;19929;-48
2023/04/27 00:30:47;;;;;;;;;;;;;;;;;;5016374;28;20373;-49
2023/04/27 00:33:21;;;;;;;;;;;;;;;;;;5019649;28;19928;-50
2023/04/27 00:35:48;;;;;;;;;;;;;;;;;;5017292;28;19932;-50
2023/04/27 00:38:15;;;;;;;;;;;;;;;;;;5019989;28;20282;-46
2023/04/27 00:40:49;;;;;;;;;;;;;;;;;;5021392;28;20411;-44
2023/04/27 00:43:16;;;;;;;;;;;;;;;;;;5021926;28;19925;-64
2023/04/27 00:45:50;;;;;;;;;;;;;;;;;;5017548;28;19930;-64
2023/04/27 00:48:17;;;;;;;;;;;;;;;;;;5021129;28;19932;-62
2023/04/27 00:50:44;;;;;;;;;;;;;;;;;;5017902;28;20380;-63
2023/04/27 00:53:18;;;;;;;;;;;;;;;;;;5020709;28;20011;-62
2023/04/27 00:55:45;;;;;;;;;;;;;;;;;;5022085;28;19928;-63
2023/04/27 00:58:19;;;;;;;;;;;;;;;;;;5021480;28;19929;-60
2023/04/27 01:00:46;;;;;;;;;;;;;;;;;;5023034;28;19921;-60
2023/04/27 01:03:13;;;;;;;;;;;;;;;;;;5020358;28;19928;-60
2023/04/27 01:05:55;;;;;;;;;;;;;;;;;;5019549;28;19975;-60
2023/04/27 01:08:23;;;;;;;;;;;;;;;;;;5017015;28;20004;-44
2023/04/27 01:10:57;;;;;;;;;;;;;;;;;;5019813;28;19929;-58
2023/04/27 01:13:24;;;;;;;;;;;;;;;;;;5020188;28;19924;-58
2023/04/27 01:15:58;;;;;;;;;;;;;;;;;;5017698;28;20007;-57
2023/04/27 01:18:25;;;;;;;;;;;;;;;;;;5018736;28;20309;-58
2023/04/27 01:20:52;;;;;;;;;;;;;;;;;;5018777;28;19925;-58
2023/04/27 01:23:26;;;;;;;;;;;;;;;;;;5021001;28;20385;-55
2023/04/27 01:25:53;;;;;;;;;;;;;;;;;;5020527;28;20027;-59
2023/04/27 01:28:27;;;;;;;;;;;;;;;;;;5021588;28;19921;-43
2023/04/27 01:30:54;;;;;;;;;;;;;;;;;;5017060;28;19929;-45
2023/04/27 01:33:21;;;;;;;;;;;;;;;;;;5018035;28;19982;-46
2023/04/27 01:35:55;;;;;;;;;;;;;;;;;;5018467;28;19927;-44
2023/04/27 01:38:23;;;;;;;;;;;;;;;;;;5019364;28;19932;-43
2023/04/27 01:40:50;;;;;;;;;;;;;;;;;;5017512;28;19921;-45
2023/04/27 01:43:23;;;;;;;;;;;;;;;;;;5017599;28;20749;-47
2023/04/27 01:45:50;;;;;;;;;;;;;;;;;;5016246;28;19960;-52
2023/04/27 01:48:24;;;;;;;;;;;;;;;;;;5017574;28;19953;-64
2023/04/27 01:50:51;;;;;;;;;;;;;;;;;;4999649;28;19921;-64
2023/04/27 01:53:18;;;;;;;;;;;;;;;;;;5020375;28;19925;-63
2023/04/27 01:55:52;;;;;;;;;;;;;;;;;;5015809;28;19931;-64
2023/04/27 01:58:19;;;;;;;;;;;;;;;;;;5018522;28;20016;-63
2023/04/27 02:00:53;;;;;;;;;;;;;;;;;;5019160;28;19931;-64
2023/04/27 02:03:20;;;;;;;;;;;;;;;;;;5016473;28;19929;-48
2023/04/27 02:05:47;;;;;;;;;;;;;;;;;;5018624;28;19990;-51
2023/04/27 02:08:21;;;;;;;;;;;;;;;;;;5022515;28;19992;-46
2023/04/27 02:10:48;;;;;;;;;;;;;;;;;;5017948;28;20019;-48
2023/04/27 02:13:22;;;;;;;;;;;;;;;;;;5020568;28;20301;-60
2023/04/27 02:15:49;;;;;;;;;;;;;;;;;;5018645;28;19921;-59
2023/04/27 02:18:17;;;;;;;;;;;;;;;;;;5019690;28;19933;-60
2023/04/27 02:20:51;;;;;;;;;;;;;;;;;;5019656;28;19928;-60
2023/04/27 02:23:18;;;;;;;;;;;;;;;;;;5020418;28;20385;-59
2023/04/27 02:25:52;;;;;;;;;;;;;;;;;;5014623;28;19928;-60
2023/04/27 02:28:19;;;;;;;;;;;;;;;;;;5000965;28;19928;-60
2023/04/27 02:30:46;;;;;;;;;;;;;;;;;;5020499;28;19925;-43
2023/04/27 02:33:20;;;;;;;;;;;;;;;;;;5016209;28;19925;-44
2023/04/27 02:35:47;;;;;;;;;;;;;;;;;;5020388;28;20575;-43
2023/04/27 02:38:21;;;;;;;;;;;;;;;;;;5018985;28;20000;-43
2023/04/27 02:40:48;;;;;;;;;;;;;;;;;;5017669;28;20004;-47
2023/04/27 02:43:15;;;;;;;;;;;;;;;;;;5001655;28;19928;-49
2023/04/27 02:45:49;;;;;;;;;;;;;;;;;;5020593;28;19928;-49
2023/04/27 02:48:19;;;;;;;;;;;;;;;;;;5019998;28;19936;-45
2023/04/27 02:50:53;;;;;;;;;;;;;;;;;;5014616;28;19925;-63
2023/04/27 02:53:20;;;;;;;;;;;;;;;;;;5021177;28;19925;-63
2023/04/27 02:55:47;;;;;;;;;;;;;;;;;;5014697;28;20373;-64
2023/04/27 02:58:21;;;;;;;;;;;;;;;;;;5016989;28;19924;-65
2023/04/27 03:00:48;;;;;;;;;;;;;;;;;;5019418;28;19924;-59
2023/04/27 03:03:15;;;;;;;;;;;;;;;;;;5015827;28;19921;-46
2023/04/27 03:05:49;;;;;;;;;;;;;;;;;;5019712;28;20022;-46
2023/04/27 03:08:16;;;;;;;;;;;;;;;;;;5016970;28;19927;-46
2023/04/27 03:10:50;;;;;;;;;;;;;;;;;;5016471;28;19922;-48
2023/04/27 03:13:17;;;;;;;;;;;;;;;;;;5017756;28;19971;-51
2023/04/27 03:15:44;;;;;;;;;;;;;;;;;;5018656;28;19937;-46
2023/04/27 03:18:18;;;;;;;;;;;;;;;;;;5014808;28;20068;-45
2023/04/27 03:20:45;;;;;;;;;;;;;;;;;;5018509;28;19960;-43
2023/04/27 03:23:12;;;;;;;;;;;;;;;;;;5017348;28;19921;-44
2023/04/27 03:25:47;;;;;;;;;;;;;;;;;;5016493;28;19940;-44
2023/04/27 03:28:21;;;;;;;;;;;;;;;;;;5016700;28;19928;-48
2023/04/27 03:30:48;;;;;;;;;;;;;;;;;;5017637;28;19960;-58
2023/04/27 03:33:17;;;;;;;;;;;;;;;;;;5016258;28;20311;-59
2023/04/27 03:35:50;;;;;;;;;;;;;;;;;;5037582;28;19925;-57
2023/04/27 03:38:17;;;;;;;;;;;;;;;;;;5037268;28;19927;-59
2023/04/27 03:40:51;;;;;;;;;;;;;;;;;;5036360;28;20383;-59
2023/04/27 03:43:18;;;;;;;;;;;;;;;;;;5037391;28;19931;-59
2023/04/27 03:45:45;;;;;;;;;;;;;;;;;;5038724;28;19927;-58
2023/04/27 03:48:19;;;;;;;;;;;;;;;;;;5037715;28;20300;-47
2023/04/27 03:50:46;;;;;;;;;;;;;;;;;;5037459;28;21076;-48
2023/04/27 03:53:20;;;;;;;;;;;;;;;;;;5037617;28;19925;-46
2023/04/27 03:55:47;;;;;;;;;;;;;;;;;;5035290;28;20051;-52
2023/04/27 03:58:16;;;;;;;;;;;;;;;;;;5037621;28;19982;-53
2023/04/27 04:00:51;;;;;;;;;;;;;;;;;;5035899;28;20284;-47
2023/04/27 04:03:18;;;;;;;;;;;;;;;;;;5010013;28;19924;-47
2023/04/27 04:05:52;;;;;;;;;;;;;;;;;;5036132;28;19932;-59
2023/04/27 04:08:19;;;;;;;;;;;;;;;;;;5035670;28;19929;-58
2023/04/27 04:10:46;;;;;;;;;;;;;;;;;;5032864;28;20304;-60
2023/04/27 04:13:20;;;;;;;;;;;;;;;;;;5037780;28;20303;-60
2023/04/27 04:15:47;;;;;;;;;;;;;;;;;;5042228;28;21069;-61
2023/04/27 04:18:21;;;;;;;;;;;;;;;;;;5027752;28;19929;-61
2023/04/27 04:20:48;;;;;;;;;;;;;;;;;;5020750;28;19925;-60
2023/04/27 04:23:15;;;;;;;;;;;;;;;;;;5021056;28;20329;-61
2023/04/27 04:25:49;;;;;;;;;;;;;;;;;;5020803;28;19928;-60
2023/04/27 04:28:16;;;;;;;;;;;;;;;;;;5017603;28;19929;-61
2023/04/27 04:30:50;;;;;;;;;;;;;;;;;;5019205;28;19932;-60
2023/04/27 04:33:17;;;;;;;;;;;;;;;;;;5018987;28;20008;-60
2023/04/27 04:35:45;;;;;;;;;;;;;;;;;;5020451;28;19940;-60
2023/04/27 04:38:18;;;;;;;;;;;;;;;;;;5019704;28;20008;-67
2023/04/27 04:40:45;;;;;;;;;;;;;;;;;;5014867;28;20311;-45
2023/04/27 04:43:20;;;;;;;;;;;;;;;;;;5018468;28;20772;-57
2023/04/27 04:45:47;;;;;;;;;;;;;;;;;;5016757;28;20023;-44
2023/04/27 04:48:15;;;;;;;;;;;;;;;;;;5021301;28;20372;-45
2023/04/27 04:50:49;;;;;;;;;;;;;;;;;;5012368;28;20396;-45
2023/04/27 04:53:16;;;;;;;;;;;;;;;;;;5018134;28;20004;-46
2023/04/27 04:55:43;;;;;;;;;;;;;;;;;;5021214;28;19925;-46
2023/04/27 04:58:17;;;;;;;;;;;;;;;;;;5020253;28;20350;-43
2023/04/27 05:00:44;;;;;;;;;;;;;;;;;;5015177;28;19925;-59
2023/04/27 05:03:11;;;;;;;;;;;;;;;;;;5019700;28;19921;-64
2023/04/27 05:05:45;;;;;;;;;;;;;;;;;;5020259;28;20020;-64
2023/04/27 05:08:12;;;;;;;;;;;;;;;;;;5018795;28;19935;-64
2023/04/27 05:10:46;;;;;;;;;;;;;;;;;;5021816;28;19931;-64
2023/04/27 05:13:13;;;;;;;;;;;;;;;;;;5018699;28;20376;-64
2023/04/27 05:15:40;;;;;;;;;;;;;;;;;;5022965;28;19928;-63
2023/04/27 05:18:14;;;;;;;;;;;;;;;;;;5029505;28;19925;-60
2023/04/27 05:20:41;;;;;;;;;;;;;;;;;;5019490;28;19932;-60
2023/04/27 05:23:15;;;;;;;;;;;;;;;;;;5021224;28;20388;-60
2023/04/27 05:25:42;;;;;;;;;;;;;;;;;;5021320;28;19929;-60
2023/04/27 05:28:09;;;;;;;;;;;;;;;;;;5020644;28;20387;-64
2023/04/27 05:30:43;;;;;;;;;;;;;;;;;;5021874;28;19925;-50
2023/04/27 05:33:10;;;;;;;;;;;;;;;;;;5021605;28;19944;-54
2023/04/27 05:35:44;;;;;;;;;;;;;;;;;;5020278;28;19927;-47
2023/04/27 05:38:13;;;;;;;;;;;;;;;;;;5022918;28;19927;-52
2023/04/27 05:40:40;;;;;;;;;;;;;;;;;;5019884;28;19928;-46
2023/04/27 05:43:14;;;;;;;;;;;;;;;;;;5020762;28;19927;-47
2023/04/27 05:45:41;;;;;;;;;;;;;;;;;;5022228;28;19928;-56
2023/04/27 05:48:15;;;;;;;;;;;;;;;;;;5017292;28;20380;-59
2023/04/27 05:50:42;;;;;;;;;;;;;;;;;;5019873;28;19935;-56
2023/04/27 05:53:09;;;;;;;;;;;;;;;;;;5018338;28;19929;-58
2023/04/27 05:55:43;;;;;;;;;;;;;;;;;;5021797;28;19924;-58
2023/04/27 05:58:10;;;;;;;;;;;;;;;;;;5018688;28;19927;-59
2023/04/27 06:00:44;;;;;;;;;;;;;;;;;;5018325;28;19921;-49
2023/04/27 06:03:11;;;;;;;;;;;;;;;;;;5017725;28;19939;-46
2023/04/27 06:05:38;;;;;;;;;;;;;;;;;;5021092;28;19929;-46
2023/04/27 06:08:12;;;;;;;;;;;;;;;;;;5019568;28;20316;-46
2023/04/27 06:10:39;;;;;;;;;;;;;;;;;;5021029;28;19927;-48
2023/04/27 06:13:13;;;;;;;;;;;;;;;;;;5019700;28;19929;-49
2023/04/27 06:15:40;;;;;;;;;;;;;;;;;;5022065;28;19925;-59
2023/04/27 06:18:07;;;;;;;;;;;;;;;;;;5021648;28;20012;-58
2023/04/27 06:20:41;;;;;;;;;;;;;;;;;;5020506;28;19966;-59
2023/04/27 06:23:08;;;;;;;;;;;;;;;;;;5040423;28;20053;-59
2023/04/27 06:25:42;;;;;;;;;;;;;;;;;;5040029;28;20015;-47
2023/04/27 06:28:09;;;;;;;;;;;;;;;;;;5039728;28;20267;-44
2023/04/27 06:30:36;;;;;;;;;;;;;;;;;;5041176;28;19920;-48
2023/04/27 06:33:10;;;;;;;;;;;;;;;;;;5038191;28;20362;-47
2023/04/27 06:35:37;;;;;;;;;;;;;;;;;;5039122;28;19929;-45
2023/04/27 06:38:05;;;;;;;;;;;;;;;;;;5041549;28;19931;-45
2023/04/27 06:40:39;;;;;;;;;;;;;;;;;;5040249;28;20043;-45
2023/04/27 06:43:06;;;;;;;;;;;;;;;;;;5037089;28;19920;-63
2023/04/27 06:45:41;;;;;;;;;;;;;;;;;;5036084;28;19929;-62
2023/04/27 06:48:08;;;;;;;;;;;;;;;;;;5037895;28;19929;-62
2023/04/27 06:50:35;;;;;;;;;;;;;;;;;;5038157;28;19942;-63
2023/04/27 06:53:09;;;;;;;;;;;;;;;;;;5036970;28;20387;-48
2023/04/27 06:55:36;;;;;;;;;;;;;;;;;;5039779;28;19925;-49
2023/04/27 06:58:03;;;;;;;;;;;;;;;;;;5037633;28;19935;-61
2023/04/27 07:00:37;;;;;;;;;;;;;;;;;;5039713;28;19921;-62
2023/04/27 07:03:04;;;;;;;;;;;;;;;;;;5039152;28;19986;-61
2023/04/27 07:05:38;;;;;;;;;;;;;;;;;;5039228;28;19956;-61
2023/04/27 07:08:05;;;;;;;;;;;;;;;;;;5039434;28;19927;-62
2023/04/27 07:10:34;;;;;;;;;;;;;;;;;;5037943;28;19929;-61
2023/04/27 07:13:08;;;;;;;;;;;;;;;;;;5038218;28;20463;-53
2023/04/27 07:15:36;;;;;;;;;;;;;;;;;;5037739;28;20371;-47
2023/04/27 07:18:11;;;;;;;;;;;;;;;;;;5029702;28;20016;-55
2023/04/27 07:20:38;;;;;;;;;;;;;;;;;;5019342;28;19967;-48
2023/04/27 07:23:05;;;;;;;;;;;;;;;;;;5018928;28;19925;-48
2023/04/27 07:25:39;;;;;;;;;;;;;;;;;;5019662;28;20391;-59
2023/04/27 07:28:06;;;;;;;;;;;;;;;;;;5017719;28;19947;-59
2023/04/27 07:30:35;;;;;;;;;;;;;;;;;;5017697;28;20016;-59
2023/04/27 07:33:09;;;;;;;;;;;;;;;;;;5016212;28;19925;-59
2023/04/27 07:35:36;;;;;;;;;;;;;;;;;;5016903;28;20458;-60
2023/04/27 07:38:10;;;;;;;;;;;;;;;;;;5017824;28;19943;-60
2023/04/27 07:40:38;;;;;;;;;;;;;;;;;;5020165;28;19967;-61
2023/04/27 07:43:12;;;;;;;;;;;;;;;;;;5013417;28;19931;-61
2023/04/27 07:45:40;;;;;;;;;;;;;;;;;;5017276;28;20015;-61
2023/04/27 07:48:07;;;;;;;;;;;;;;;;;;5015432;28;19975;-61
2023/04/27 07:50:41;;;;;;;;;;;;;;;;;;5017757;28;19980;-59
2023/04/27 07:53:08;;;;;;;;;;;;;;;;;;5015549;28;19925;-61
2023/04/27 07:55:45;;;;;;;;;;;;;;;;;;5019916;28;19925;-61
2023/04/27 07:58:12;;;;;;;;;;;;;;;;;;5017844;28;19929;-61
2023/04/27 08:00:39;;;;;;;;;;;;;;;;;;5017552;28;19936;-61
2023/04/27 08:03:13;;;;;;;;;;;;;;;;;;5014441;28;19921;-61
2023/04/27 08:05:40;;;;;;;;;;;;;;;;;;5015461;28;20052;-61
2023/04/27 08:08:14;;;;;;;;;;;;;;;;;;5018512;28;19936;-60
2023/04/27 08:10:41;;;;;;;;;;;;;;;;;;5017035;28;19954;-60
2023/04/27 08:13:09;;;;;;;;;;;;;;;;;;5011626;28;20319;-61
2023/04/27 08:15:42;;;;;;;;;;;;;;;;;;5016690;28;19921;-60
2023/04/27 08:18:09;;;;;;;;;;;;;;;;;;5015096;28;20012;-58
2023/04/27 08:20:43;;;;;;;;;;;;;;;;;;5018622;28;19975;-61
2023/04/27 08:23:10;;;;;;;;;;;;;;;;;;5023532;28;20386;-47
2023/04/27 08:25:37;;;;;;;;;;;;;;;;;;5019859;28;20724;-46
2023/04/27 08:28:11;;;;;;;;;;;;;;;;;;5018444;28;20044;-51
2023/04/27 08:30:38;;;;;;;;;;;;;;;;;;5016859;28;21743;-50
2023/04/27 08:33:05;;;;;;;;;;;;;;;;;;5017412;28;20296;-47
2023/04/27 08:35:39;;;;;;;;;;;;;;;;;;5019280;28;19964;-47
2023/04/27 08:38:06;;;;;;;;;;;;;;;;;;5021813;28;19977;-49
2023/04/27 08:40:40;;;;;;;;;;;;;;;;;;5017430;28;19925;-48
2023/04/27 08:43:07;;;;;;;;;;;;;;;;;;5019317;28;20469;-52
2023/04/27 08:45:34;;;;;;;;;;;;;;;;;;5012277;28;20352;-52
2023/04/27 08:48:08;;;;;;;;;;;;;;;;;;5016387;28;19925;-62
2023/04/27 08:50:35;;;;;;;;;;;;;;;;;;5014656;28;19978;-58
2023/04/27 08:53:09;;;;;;;;;;;;;;;;;;5016063;28;19939;-60
2023/04/27 08:55:36;;;;;;;;;;;;;;;;;;5019840;28;19929;-60
2023/04/27 08:58:10;;;;;;;;;;;;;;;;;;5020380;28;20406;-60
2023/04/27 09:00:38;;;;;;;;;;;;;;;;;;5019637;28;21101;-60
2023/04/27 09:03:06;;;;;;;;;;;;;;;;;;5017904;28;19928;-60
2023/04/27 09:05:40;;;;;;;;;;;;;;;;;;5020904;28;22100;-60
2023/04/27 09:08:18;;;;;;;;;;;;;;;;;;5023547;28;19929;-60
2023/04/27 09:10:53;;;;;;;;;;;;;;;;;;5023691;28;19928;-60
2023/04/27 09:13:20;;;;;;;;;;;;;;;;;;5020322;28;20452;-60
2023/04/27 09:15:47;;;;;;;;;;;;;;;;;;5020258;28;20013;-60
2023/04/27 09:18:21;;;;;;;;;;;;;;;;;;5020868;28;20265;-59
2023/04/27 09:20:48;;;;;;;;;;;;;;;;;;5019015;28;20341;-59
2023/04/27 09:23:22;;;;;;;;;;;;;;;;;;5023988;28;20377;-58
2023/04/27 09:25:49;;;;;;;;;;;;;;;;;;5019145;28;19921;-58
2023/04/27 09:28:23;;;;;;;;;;;;;;;;;;5020105;28;20394;-59
2023/04/27 09:30:50;;;;;;;;;;;;;;;;;;5021660;28;19932;-59
2023/04/27 09:33:24;;;;;;;;;;;;;;;;;;5020950;28;19921;-60
2023/04/27 09:35:51;;;;;;;;;;;;;;;;;;5018674;28;20012;-61
2023/04/27 09:38:19;;;;;;;;;;;;;;;;;;5021789;28;19929;-60
2023/04/27 09:40:52;;;;;;;;;;;;;;;;;;5021178;28;19929;-60
2023/04/27 09:43:19;;;;;;;;;;;;;;;;;;5020243;28;19926;-54
2023/04/27 09:45:53;;;;;;;;;;;;;;;;;;5020667;28;20369;-63
2023/04/27 09:48:20;;;;;;;;;;;;;;;;;;5015961;28;20399;-58
2023/04/27 09:50:47;;;;;;;;;;;;;;;;;;5016949;28;19931;-59
2023/04/27 09:53:21;;;;;;;;;;;;;;;;;;5017101;28;19921;-59
2023/04/27 09:55:56;;;;;;;;;;;;;;;;;;5020177;28;19929;-59
2023/04/27 09:58:31;;;;;;;;;;;;;;;;;;5019376;28;19935;-60
2023/04/27 10:00:59;;;;;;;;;;;;;;;;;;5020404;28;19924;-58
2023/04/27 10:03:26;;;;;;;;;;;;;;;;;;5017946;28;19940;-55
2023/04/27 10:06:00;;;;;;;;;;;;;;;;;;5019276;28;19921;-55
2023/04/27 10:08:27;;;;;;;;;;;;;;;;;;5017432;28;19955;-54
2023/04/27 10:10:54;;;;;;;;;;;;;;;;;;5021241;28;19920;-55
2023/04/27 10:13:28;;;;;;;;;;;;;;;;;;5016113;28;20289;-52
2023/04/27 10:15:55;;;;;;;;;;;;;;;;;;5016445;28;19925;-59
2023/04/27 10:18:36;;;;;;;;;;;;;;;;;;5017541;28;19964;-59
2023/04/27 10:21:03;;;;;;;;;;;;;;;;;;5022600;28;19925;-59
2023/04/27 10:23:37;;;;;;;;;;;;;;;;;;5019366;28;21101;-60
2023/04/27 10:26:04;;;;;;;;;;;;;;;;;;5023599;28;19921;-59
2023/04/27 10:28:39;;;;;;;;;;;;;;;;;;5017863;28;19972;-60
2023/04/27 10:31:06;;;;;;;;;;;;;;;;;;5018390;28;20372;-53
2023/04/27 10:33:40;;;;;;;;;;;;;;;;;;5018171;28;19932;-55
2023/04/27 10:36:07;;;;;;;;;;;;;;;;;;5020875;28;20008;-53
2023/04/27 10:38:34;;;;;;;;;;;;;;;;;;5019217;28;20291;-57
2023/04/27 10:41:08;;;;;;;;;;;;;;;;;;5019309;28;19951;-64
2023/04/27 10:43:35;;;;;;;;;;;;;;;;;;5019489;28;19929;-60
2023/04/27 10:46:09;;;;;;;;;;;;;;;;;;5015675;28;19921;-61
2023/04/27 10:48:36;;;;;;;;;;;;;;;;;;5015138;28;19925;-60
2023/04/27 10:51:03;;;;;;;;;;;;;;;;;;5016603;28;20292;-60
2023/04/27 10:53:37;;;;;;;;;;;;;;;;;;5017754;28;19921;-60
2023/04/27 10:56:07;;;;;;;;;;;;;;;;;;5018371;28;20284;-61
2023/04/27 10:58:40;;;;;;;;;;;;;;;;;;5017549;28;19929;-60
2023/04/27 11:01:15;;;;;;;;;;;;;;;;;;5013958;28;19971;-60
2023/04/27 11:03:49;;;;;;;;;;;;;;;;;;5019994;28;19983;-60
2023/04/27 11:06:16;;;;;;;;;;;;;;;;;;5019628;28;19921;-60
2023/04/27 11:08:50;;;;;;;;;;;;;;;;;;5015289;28;19925;-47
2023/04/27 11:11:17;;;;;;;;;;;;;;;;;;5018778;28;20470;-58
2023/04/27 11:13:54;;;;;;;;;;;;;;;;;;5017302;28;19921;-60
2023/04/27 11:16:21;;;;;;;;;;;;;;;;;;5016559;28;19929;-60
2023/04/27 11:18:58;;;;;;;;;;;;;;;;;;5013706;28;20324;-61
2023/04/27 11:21:27;;;;;;;;;;;;;;;;;;5000534;28;20024;-60
2023/04/27 11:24:01;;;;;;;;;;;;;;;;;;5018739;28;19925;-60
2023/04/27 11:26:28;;;;;;;;;;;;;;;;;;5019072;28;19927;-60
2023/04/27 11:29:04;;;;;;;;;;;;;;;;;;5020485;28;19920;-49
2023/04/27 11:31:31;;;;;;;;;;;;;;;;;;5018102;28;19928;-51
2023/04/27 11:34:04;;;;;;;;;;;;;;;;;;4999240;28;19936;-50
2023/04/27 11:36:33;;;;;;;;;;;;;;;;;;4998145;28;19926;-53
2023/04/27 11:39:00;;;;;;;;;;;;;;;;;;4996670;28;19936;-60
2023/04/27 11:41:34;;;;;;;;;;;;;;;;;;5020779;28;19928;-61
2023/04/27 11:44:01;;;;;;;;;;;;;;;;;;5018734;28;19925;-60
2023/04/27 11:46:35;;;;;;;;;;;;;;;;;;5018270;28;19971;-60
2023/04/27 11:49:09;;;;;;;;;;;;;;;;;;5019590;28;19924;-59
2023/04/27 11:51:37;;;;;;;;;;;;;;;;;;5016097;28;20007;-60
2023/04/27 11:54:10;;;;;;;;;;;;;;;;;;5020554;28;19929;-60
2023/04/27 11:56:38;;;;;;;;;;;;;;;;;;5019161;28;19929;-63
2023/04/27 11:59:05;;;;;;;;;;;;;;;;;;5016629;28;19925;-62
2023/04/27 12:01:38;;;;;;;;;;;;;;;;;;5016859;28;19972;-62
2023/04/27 12:04:05;;;;;;;;;;;;;;;;;;5015765;28;19925;-62
2023/04/27 12:06:40;;;;;;;;;;;;;;;;;;5018107;28;20444;-60
2023/04/27 12:09:07;;;;;;;;;;;;;;;;;;5014704;28;19931;-60
2023/04/27 12:11:34;;;;;;;;;;;;;;;;;;5019025;28;19955;-60
2023/04/27 12:14:07;;;;;;;;;;;;;;;;;;5018628;28;20007;-60
2023/04/27 12:16:34;;;;;;;;;;;;;;;;;;5015266;28;19935;-61
2023/04/27 12:19:08;;;;;;;;;;;;;;;;;;5015545;28;19932;-60
2023/04/27 12:21:35;;;;;;;;;;;;;;;;;;5015584;28;19921;-60
2023/04/27 12:24:02;;;;;;;;;;;;;;;;;;5017381;28;19935;-58
2023/04/27 12:26:37;;;;;;;;;;;;;;;;;;5038663;28;19928;-58
2023/04/27 12:29:04;;;;;;;;;;;;;;;;;;5039545;28;19921;-55
2023/04/27 12:31:37;;;;;;;;;;;;;;;;;;5038598;28;19947;-56
2023/04/27 12:34:04;;;;;;;;;;;;;;;;;;5041269;28;20338;-61
2023/04/27 12:36:32;;;;;;;;;;;;;;;;;;5023240;28;20007;-62
2023/04/27 12:39:05;;;;;;;;;;;;;;;;;;5042163;28;19925;-59
2023/04/27 12:41:32;;;;;;;;;;;;;;;;;;5041391;28;19935;-59
2023/04/27 12:43:59;;;;;;;;;;;;;;;;;;5038760;28;19921;-59
2023/04/27 12:46:33;;;;;;;;;;;;;;;;;;5042768;28;20307;-59
2023/04/27 12:49:00;;;;;;;;;;;;;;;;;;5041002;28;20078;-60
2023/04/27 12:51:34;;;;;;;;;;;;;;;;;;5043721;28;19920;-59
2023/04/27 12:54:01;;;;;;;;;;;;;;;;;;5039269;28;19920;-54
2023/04/27 12:56:28;;;;;;;;;;;;;;;;;;5041594;28;20057;-46
2023/04/27 12:59:02;;;;;;;;;;;;;;;;;;5038011;28;20026;-46
2023/04/27 13:01:30;;;;;;;;;;;;;;;;;;5039447;28;19928;-49
2023/04/27 13:04:04;;;;;;;;;;;;;;;;;;5039462;28;20011;-59
2023/04/27 13:06:32;;;;;;;;;;;;;;;;;;5040342;28;20502;-47
2023/04/27 13:08:59;;;;;;;;;;;;;;;;;;5042334;28;19924;-47
2023/04/27 13:11:32;;;;;;;;;;;;;;;;;;5041104;28;19928;-50
2023/04/27 13:14:00;;;;;;;;;;;;;;;;;;5039764;28;19921;-50
2023/04/27 13:16:34;;;;;;;;;;;;;;;;;;5038841;28;19987;-48
2023/04/27 13:19:08;;;;;;;;;;;;;;;;;;5030006;28;20452;-47
2023/04/27 13:21:35;;;;;;;;;;;;;;;;;;5020026;28;19924;-62
2023/04/27 13:24:09;;;;;;;;;;;;;;;;;;5021057;28;20363;-62
2023/04/27 13:26:36;;;;;;;;;;;;;;;;;;5021242;28;19931;-62
2023/04/27 13:29:04;;;;;;;;;;;;;;;;;;5022578;28;20328;-62
2023/04/27 13:31:37;;;;;;;;;;;;;;;;;;5019742;28;20009;-57
2023/04/27 13:34:04;;;;;;;;;;;;;;;;;;5018901;28;20396;-61
2023/04/27 13:36:38;;;;;;;;;;;;;;;;;;5022974;28;19960;-60
2023/04/27 13:39:06;;;;;;;;;;;;;;;;;;5022413;28;20373;-60
2023/04/27 13:41:34;;;;;;;;;;;;;;;;;;5019014;28;20466;-60
2023/04/27 13:44:08;;;;;;;;;;;;;;;;;;5014859;28;19948;-60
2023/04/27 13:46:36;;;;;;;;;;;;;;;;;;5018659;28;19960;-59
2023/04/27 13:49:09;;;;;;;;;;;;;;;;;;5020305;28;20414;-60
2023/04/27 13:51:36;;;;;;;;;;;;;;;;;;5017540;28;20652;-59
2023/04/27 13:54:04;;;;;;;;;;;;;;;;;;5021950;28;19931;-58
2023/04/27 13:56:37;;;;;;;;;;;;;;;;;;5016681;28;19943;-59
2023/04/27 13:59:04;;;;;;;;;;;;;;;;;;5022235;28;19975;-58
2023/04/27 14:01:38;;;;;;;;;;;;;;;;;;5018182;28;19931;-59
2023/04/27 14:04:06;;;;;;;;;;;;;;;;;;5015650;28;20640;-56
2023/04/27 14:06:33;;;;;;;;;;;;;;;;;;5013916;28;20709;-56
2023/04/27 14:09:08;;;;;;;;;;;;;;;;;;5020034;28;20392;-56
2023/04/27 14:11:35;;;;;;;;;;;;;;;;;;5018187;28;20368;-58
2023/04/27 14:14:14;;;;;;;;;;;;;;;;;;5017667;28;20131;-57
2023/04/27 14:16:49;;;;;;;;;;;;;;;;;;5017657;28;19921;-57
2023/04/27 14:19:19;;;;;;;;;;;;;;;;;;5019360;28;19925;-60
2023/04/27 14:21:52;;;;;;;;;;;;;;;;;;5010327;28;19925;-59
2023/04/27 14:24:19;;;;;;;;;;;;;;;;;;5008637;28;19929;-57
2023/04/27 14:26:47;;;;;;;;;;;;;;;;;;5021315;28;20310;-59
2023/04/27 14:29:22;;;;;;;;;;;;;;;;;;5016788;28;19935;-59
2023/04/27 14:31:49;;;;;;;;;;;;;;;;;;5016093;28;19921;-59
2023/04/27 14:34:23;;;;;;;;;;;;;;;;;;5015645;28;19922;-57
2023/04/27 14:36:50;;;;;;;;;;;;;;;;;;5023631;28;19931;-58
2023/04/27 14:39:17;;;;;;;;;;;;;;;;;;5022924;28;19925;-54
2023/04/27 14:41:52;;;;;;;;;;;;;;;;;;5019075;28;19975;-60
2023/04/27 14:44:19;;;;;;;;;;;;;;;;;;5018496;28;19928;-60
2023/04/27 14:46:53;;;;;;;;;;;;;;;;;;5017618;28;19925;-60
2023/04/27 14:49:20;;;;;;;;;;;;;;;;;;5018030;28;19940;-60
2023/04/27 14:51:47;;;;;;;;;;;;;;;;;;5017024;28;19930;-60
2023/04/27 14:54:21;;;;;;;;;;;;;;;;;;5021010;28;19921;-60
2023/04/27 14:56:48;;;;;;;;;;;;;;;;;;5021755;28;20015;-57
2023/04/27 14:59:24;;;;;;;;;;;;;;;;;;5021145;28;20384;-58
2023/04/27 15:01:51;;;;;;;;;;;;;;;;;;5019471;28;19932;-52
2023/04/27 15:04:19;;;;;;;;;;;;;;;;;;5035822;28;19932;-51
2023/04/27 15:06:53;;;;;;;;;;;;;;;;;;5038995;28;19936;-46
2023/04/27 15:09:20;;;;;;;;;;;;;;;;;;5038765;28;20027;-47
2023/04/27 15:11:54;;;;;;;;;;;;;;;;;;5041273;28;19920;-48
2023/04/27 15:14:21;;;;;;;;;;;;;;;;;;5038354;28;20307;-47
2023/04/27 15:16:48;;;;;;;;;;;;;;;;;;5021429;28;19924;-52
2023/04/27 15:19:26;;;;;;;;;;;;;;;;;;5027733;28;20395;-48
2023/04/27 15:21:53;;;;;;;;;;;;;;;;;;5017783;28;19931;-47
2023/04/27 15:24:27;;;;;;;;;;;;;;;;;;5018363;28;19931;-61
2023/04/27 15:26:54;;;;;;;;;;;;;;;;;;5018814;28;19926;-62
2023/04/27 15:29:21;;;;;;;;;;;;;;;;;;5019804;28;19975;-61
2023/04/27 15:31:55;;;;;;;;;;;;;;;;;;5018520;28;19972;-62
2023/04/27 15:34:22;;;;;;;;;;;;;;;;;;5019183;28;20016;-61
2023/04/27 15:36:56;;;;;;;;;;;;;;;;;;5021216;28;20012;-61
2023/04/27 15:39:23;;;;;;;;;;;;;;;;;;5022613;28;19920;-62
2023/04/27 15:41:50;;;;;;;;;;;;;;;;;;5021018;28;19960;-50
2023/04/27 15:44:24;;;;;;;;;;;;;;;;;;5040008;28;20308;-62
2023/04/27 15:46:51;;;;;;;;;;;;;;;;;;5039524;28;19921;-61
2023/04/27 15:49:25;;;;;;;;;;;;;;;;;;5035638;28;19925;-62
2023/04/27 15:51:54;;;;;;;;;;;;;;;;;;5035676;28;19935;-62
2023/04/27 15:54:26;;;;;;;;;;;;;;;;;;5035761;28;20307;-62
2023/04/27 15:57:02;;;;;;;;;;;;;;;;;;5038526;28;19921;-61
2023/04/27 15:59:30;;;;;;;;;;;;;;;;;;5038491;28;20015;-62
2023/04/27 16:01:57;;;;;;;;;;;;;;;;;;5039131;28;19927;-62
2023/04/27 16:04:30;;;;;;;;;;;;;;;;;;5032639;28;19936;-59
2023/04/27 16:06:57;;;;;;;;;;;;;;;;;;5033334;28;19983;-59
2023/04/27 16:09:31;;;;;;;;;;;;;;;;;;5039242;28;19921;-57
2023/04/27 16:11:58;;;;;;;;;;;;;;;;;;5038351;28;19929;-58
2023/04/27 16:14:26;;;;;;;;;;;;;;;;;;5035343;28;19928;-59
2023/04/27 16:16:59;;;;;;;;;;;;;;;;;;5035837;28;19921;-58
2023/04/27 16:19:29;;;;;;;;;;;;;;;;;;5019062;28;19929;-58
2023/04/27 16:21:56;;;;;;;;;;;;;;;;;;4991774;28;19937;-48
2023/04/27 16:24:30;;;;;;;;;;;;;;;;;;4989248;28;19922;-50
2023/04/27 16:26:57;;;;;;;;;;;;;;;;;;4986312;28;19972;-51
2023/04/27 16:29:31;;;;;;;;;;;;;;;;;;4996303;28;19937;-52
2023/04/27 16:31:58;;;;;;;;;;;;;;;;;;4996207;28;19921;-48
2023/04/27 16:34:26;;;;;;;;;;;;;;;;;;4996713;28;19925;-48
2023/04/27 16:37:00;;;;;;;;;;;;;;;;;;4995672;28;19929;-58
2023/04/27 16:39:27;;;;;;;;;;;;;;;;;;4994264;28;20289;-60
2023/04/27 16:41:56;;;;;;;;;;;;;;;;;;4996661;28;19925;-61
2023/04/27 16:44:29;;;;;;;;;;;;;;;;;;4978999;28;20490;-61
2023/04/27 16:46:57;;;;;;;;;;;;;;;;;;4995522;28;19932;-61
2023/04/27 16:49:31;;;;;;;;;;;;;;;;;;4994970;28;19957;-61
2023/04/27 16:51:58;;;;;;;;;;;;;;;;;;4998704;28;19926;-61
2023/04/27 16:54:25;;;;;;;;;;;;;;;;;;4995653;28;19929;-61
2023/04/27 16:56:58;;;;;;;;;;;;;;;;;;4997043;28;20766;-52
2023/04/27 16:59:25;;;;;;;;;;;;;;;;;;4998748;28;19929;-54
2023/04/27 17:01:52;;;;;;;;;;;;;;;;;;4993716;28;19921;-55
2023/04/27 17:04:39;;;;;;;;;;;;;;;;;;4995851;28;19948;-52